Sparks, Georgia
Current Conditions -  °F | °C
As of 5:35 AM on Thursday 27 Nov 2014 (Local Time) from KTMA Reporting Station
Clear Clear  
Wind Chill: 41°   Ceiling: Unl
Heat Index: 44°   Visibility: 10mi
Dew Point: 39°   Wind: 6mph
Humidity: 82%   Direction: 300°WNW
Pressure: 30.2"   Gusts: NA
Location:  31.17°N, 83.44°W
Report Text: KTMA 271035Z AUTO 30005KT 10SM CLR 07/04 A3020 RMK AO2 T00680040
Loading
Personal Weather Stations






























Interactive Weather Map New forecast layout! Learn more

10-Day Weather Forecast

Advertisements
Track Severe Weather on mobile